Time;durP1;ratioP1;P1;durP2;ratioP2;P2;SDS_P1;SDS_P2;PMS_P1;PMS_P2;Temp;Humidity;BMP_temperature;BMP_pressure;BME280_temperature;BME280_humidity;BME280_pressure;Samples;Min_cycle;Max_cycle;Signal;HPM_P1;HPM_P2
2022/10/16 00:00:35;;;;;;;8.10;5.20;;;;;;;13.06;60.39;100378.28;5068666;28;20040;-42
2022/10/16 00:03:02;;;;;;;8.75;5.55;;;;;;;13.12;60.34;100377.50;5069662;28;20470;-41
2022/10/16 00:05:27;;;;;;;9.55;5.20;;;;;;;13.43;59.60;100381.41;5073218;28;20024;-41
2022/10/16 00:07:53;;;;;;;8.48;5.00;;;;;;;13.28;60.34;100385.09;5072892;28;20031;-41
2022/10/16 00:10:18;;;;;;;7.32;5.22;;;;;;;13.55;59.71;100386.97;5073154;28;20093;-41
2022/10/16 00:12:43;;;;;;;10.02;5.38;;;;;;;13.64;59.01;100389.22;5073126;28;20399;-41
2022/10/16 00:15:09;;;;;;;10.52;5.90;;;;;;;13.58;59.28;100389.22;5073012;28;20046;-41
2022/10/16 00:17:34;;;;;;;9.80;5.55;;;;;;;13.54;59.32;100393.34;5073294;28;20492;-36
2022/10/16 00:20:00;;;;;;;8.95;5.40;;;;;;;13.57;59.28;100398.28;5073266;28;20024;-36
2022/10/16 00:22:26;;;;;;;11.07;5.60;;;;;;;13.50;59.35;100384.91;5072975;28;20489;-36
2022/10/16 00:24:51;;;;;;;11.90;5.30;;;;;;;14.02;58.25;100399.22;5073150;28;20075;-36
2022/10/16 00:27:17;;;;;;;9.88;5.50;;;;;;;14.22;56.85;100401.00;5072905;28;20031;-36
2022/10/16 00:29:42;;;;;;;9.70;5.47;;;;;;;14.08;57.10;100393.03;5072784;28;20408;-36
2022/10/16 00:32:08;;;;;;;7.53;5.32;;;;;;;14.26;56.61;100381.66;5072772;28;20025;-36
2022/10/16 00:34:34;;;;;;;9.65;5.18;;;;;;;14.44;56.05;100396.19;5072934;28;20025;-36
2022/10/16 00:36:59;;;;;;;7.10;5.45;;;;;;;14.44;56.50;100394.31;5072769;28;20545;-36
2022/10/16 00:39:25;;;;;;;9.70;5.63;;;;;;;14.28;56.56;100394.81;5072884;28;20052;-36
2022/10/16 00:41:51;;;;;;;8.95;5.45;;;;;;;14.42;55.79;100393.72;5072432;28;20712;-36
2022/10/16 00:44:43;;;;;;;10.50;5.63;;;;;;;14.31;56.36;100396.25;5072840;28;20028;-36
2022/10/16 00:47:12;;;;;;;8.82;6.00;;;;;;;14.17;56.61;100398.97;5072666;28;20090;-36
2022/10/16 00:49:38;;;;;;;8.35;5.85;;;;;;;14.15;56.67;100403.72;5071998;28;20028;-36
2022/10/16 00:52:04;;;;;;;9.38;5.95;;;;;;;13.97;57.00;100403.56;5072437;28;20047;-37
2022/10/16 00:54:31;;;;;;;9.07;5.78;;;;;;;14.03;57.52;100405.38;5072466;28;20055;-36
2022/10/16 00:57:01;;;;;;;9.55;6.10;;;;;;;13.85;57.57;100414.06;5072604;28;20066;-36
2022/10/16 00:59:28;;;;;;;11.68;6.70;;;;;;;13.87;57.75;100414.69;5072615;28;20035;-36
2022/10/16 01:01:54;;;;;;;14.05;7.43;;;;;;;13.65;58.29;100424.78;5072373;28;20122;-36
2022/10/16 01:04:20;;;;;;;10.32;7.40;;;;;;;13.69;58.17;100421.50;5072150;28;20480;-36
2022/10/16 01:06:56;;;;;;;16.70;8.20;;;;;;;13.63;58.68;100427.69;5072364;28;20024;-36
2022/10/16 01:10:01;;;;;;;13.63;8.02;;;;;;;13.71;58.05;100431.16;5072150;28;20037;-36
2022/10/16 01:12:54;;;;;;;13.70;8.23;;;;;;;13.60;58.81;100441.47;5071709;28;20047;-36
2022/10/16 01:15:37;;;;;;;14.77;7.40;;;;;;;13.18;60.17;100453.34;5071602;28;20492;-36
2022/10/16 01:18:14;;;;;;;17.42;8.57;;;;;;;13.23;59.99;100445.53;5072181;28;20112;-36
2022/10/16 01:21:04;;;;;;;14.82;8.02;;;;;;;13.26;59.76;100448.63;5071799;28;20561;-36
2022/10/16 01:23:51;;;;;;;14.13;8.00;;;;;;;13.44;59.43;100436.53;5072138;28;20036;-37
2022/10/16 01:26:47;;;;;;;14.57;7.78;;;;;;;13.59;58.78;100437.13;5071888;28;20029;-36
2022/10/16 01:29:21;;;;;;;12.32;7.88;;;;;;;13.51;58.79;100444.56;5071750;28;20111;-36
2022/10/16 01:31:53;;;;;;;12.73;8.43;;;;;;;13.35;59.53;100445.78;5071751;28;20016;-36
2022/10/16 01:34:25;;;;;;;14.25;8.38;;;;;;;13.26;59.26;100437.91;5072052;28;20055;-36
2022/10/16 01:36:59;;;;;;;14.13;7.78;;;;;;;13.33;59.08;100442.47;5071639;28;20024;-36
2022/10/16 01:39:30;;;;;;;10.88;7.57;;;;;;;13.32;59.49;100455.03;5071824;28;20110;-36
2022/10/16 01:42:09;;;;;;;11.15;7.57;;;;;;;13.19;59.83;100455.78;5071415;28;20020;-37
2022/10/16 01:44:36;;;;;;;13.15;7.53;;;;;;;13.36;59.28;100458.94;5071503;28;20029;-36
2022/10/16 01:47:03;;;;;;;15.38;8.23;;;;;;;13.24;59.71;100455.19;5071463;28;20107;-36
2022/10/16 01:49:36;;;;;;;12.30;7.63;;;;;;;13.16;60.03;100466.09;5071513;28;20025;-36
2022/10/16 01:52:06;;;;;;;11.68;7.85;;;;;;;13.18;60.10;100470.19;5071310;28;20016;-36
2022/10/16 01:54:35;;;;;;;12.18;7.88;;;;;;;13.16;59.51;100456.22;5071544;28;20495;-36
2022/10/16 01:57:03;;;;;;;12.27;7.80;;;;;;;13.39;58.78;100473.75;5071263;28;20433;-36
2022/10/16 01:59:31;;;;;;;10.52;7.45;;;;;;;13.44;58.83;100469.44;5071306;28;20039;-36
2022/10/16 02:02:01;;;;;;;12.80;7.50;;;;;;;13.30;59.29;100471.25;5071245;28;20395;-36
2022/10/16 02:04:31;;;;;;;12.07;7.75;;;;;;;13.20;59.86;100470.00;5071295;28;20492;-36
2022/10/16 02:06:57;;;;;;;12.10;8.00;;;;;;;13.28;59.13;100470.63;5071039;28;20024;-36
2022/10/16 02:09:22;;;;;;;11.93;8.02;;;;;;;13.40;58.52;100462.03;5070893;28;20024;-36
2022/10/16 02:11:50;;;;;;;13.57;8.13;;;;;;;13.36;58.82;100461.59;5070692;28;20096;-36
2022/10/16 02:14:16;;;;;;;13.88;7.70;;;;;;;13.37;58.81;100468.59;5070411;28;20047;-36
2022/10/16 02:16:46;;;;;;;13.63;7.75;;;;;;;13.21;59.92;100464.47;5070872;28;20099;-36
2022/10/16 02:19:16;;;;;;;12.20;7.68;;;;;;;13.30;59.33;100468.59;5071024;28;20025;-36
2022/10/16 02:21:57;;;;;;;12.52;7.72;;;;;;;13.29;59.39;100469.59;5070581;28;20101;-37
2022/10/16 02:24:29;;;;;;;11.05;8.13;;;;;;;13.32;59.26;100465.72;5070848;28;20123;-37
2022/10/16 02:27:01;;;;;;;11.02;7.97;;;;;;;13.25;59.37;100467.53;5069996;28;20107;-36
2022/10/16 02:29:28;;;;;;;10.52;7.88;;;;;;;13.19;59.50;100469.16;5070524;28;20052;-36
2022/10/16 02:32:04;;;;;;;14.10;7.57;;;;;;;13.16;59.66;100466.09;5070641;28;20031;-37
2022/10/16 02:34:31;;;;;;;13.48;7.95;;;;;;;13.25;59.29;100471.03;5070552;28;20103;-37
2022/10/16 02:37:00;;;;;;;15.18;8.50;;;;;;;13.07;59.39;100486.81;5070622;28;20033;-36
2022/10/16 02:39:27;;;;;;;12.18;7.80;;;;;;;13.15;59.36;100477.78;5069828;28;20032;-36
2022/10/16 02:41:53;;;;;;;13.60;7.57;;;;;;;13.14;59.82;100484.19;5069414;28;20384;-36
2022/10/16 02:44:18;;;;;;;13.70;7.57;;;;;;;12.94;60.77;100484.09;5069369;28;20020;-36
2022/10/16 02:46:44;;;;;;;14.82;8.05;;;;;;;13.05;60.18;100491.53;5069945;28;20048;-36
2022/10/16 02:49:09;;;;;;;12.13;7.63;;;;;;;13.10;59.95;100495.25;5070133;28;20124;-37
2022/10/16 02:51:34;;;;;;;12.95;7.95;;;;;;;13.10;59.71;100484.56;5070326;28;20045;-36
2022/10/16 02:54:02;;;;;;;12.63;8.13;;;;;;;13.20;59.20;100488.72;5069695;28;20081;-36
2022/10/16 02:56:27;;;;;;;11.98;8.10;;;;;;;13.14;59.43;100501.03;5070109;28;20028;-36
2022/10/16 02:58:53;;;;;;;11.63;7.63;;;;;;;13.15;59.34;100508.00;5070311;28;20031;-37
2022/10/16 03:01:18;;;;;;;11.38;8.07;;;;;;;13.02;59.62;100500.78;5070101;28;20035;-36
2022/10/16 03:03:43;;;;;;;11.43;8.18;;;;;;;13.18;59.16;100502.25;5070589;28;20114;-36
2022/10/16 03:06:09;;;;;;;11.00;8.00;;;;;;;13.23;59.40;100510.50;5069887;28;20025;-36
2022/10/16 03:08:34;;;;;;;11.60;7.53;;;;;;;13.22;58.68;100503.50;5069567;28;20044;-36
2022/10/16 03:11:00;;;;;;;12.23;8.00;;;;;;;13.13;59.74;100507.38;5069829;28;20421;-36
2022/10/16 03:13:25;;;;;;;13.48;7.75;;;;;;;13.06;59.85;100515.41;5069656;28;20532;-35
2022/10/16 03:15:51;;;;;;;12.60;7.82;;;;;;;12.90;60.42;100494.38;5069855;28;20020;-42
2022/10/16 03:18:16;;;;;;;11.60;8.05;;;;;;;13.05;60.14;100512.91;5069831;28;20111;-42
2022/10/16 03:20:45;;;;;;;14.32;8.13;;;;;;;13.17;59.34;100513.97;5069378;28;20084;-41
2022/10/16 03:23:10;;;;;;;11.30;7.55;;;;;;;13.15;59.79;100518.69;5069847;28;20029;-42
2022/10/16 03:25:36;;;;;;;10.82;7.28;;;;;;;12.99;59.67;100519.06;5069908;28;20017;-42
2022/10/16 03:28:01;;;;;;;10.80;7.75;;;;;;;13.05;60.09;100527.09;5069834;28;20024;-42
2022/10/16 03:30:27;;;;;;;11.00;7.53;;;;;;;12.99;60.58;100521.75;5069984;28;20024;-42
2022/10/16 03:32:53;;;;;;;12.13;7.80;;;;;;;13.01;60.25;100523.19;5069963;28;20093;-42
2022/10/16 03:35:23;;;;;;;13.90;7.85;;;;;;;12.83;60.64;100521.06;5070055;28;20028;-42
2022/10/16 03:37:49;;;;;;;11.20;7.93;;;;;;;12.94;60.75;100521.50;5071725;28;20048;-42
2022/10/16 03:40:15;;;;;;;12.57;8.63;;;;;;;12.75;60.83;100529.22;5074506;28;20063;-42
2022/10/16 03:42:42;;;;;;;11.85;7.85;;;;;;;12.87;60.55;100532.16;5074090;28;20020;-42
2022/10/16 03:45:08;;;;;;;11.60;8.02;;;;;;;12.97;60.51;100537.16;5074272;28;20028;-42
2022/10/16 03:47:34;;;;;;;14.93;8.45;;;;;;;12.96;60.15;100536.31;5074059;28;20120;-42
2022/10/16 03:50:00;;;;;;;13.77;8.30;;;;;;;13.03;60.18;100534.50;5073845;28;20043;-42
2022/10/16 03:52:25;;;;;;;12.88;8.32;;;;;;;12.99;60.37;100535.91;5073918;28;20023;-42
2022/10/16 03:54:51;;;;;;;11.10;8.00;;;;;;;12.74;60.90;100540.09;5073915;28;20089;-42
2022/10/16 03:57:17;;;;;;;11.25;7.18;;;;;;;12.84;60.29;100538.72;5073862;28;20044;-42
2022/10/16 03:59:43;;;;;;;15.15;8.00;;;;;;;12.97;60.22;100545.16;5073971;28;20064;-42
2022/10/16 04:02:08;;;;;;;15.23;8.23;;;;;;;12.90;60.75;100545.94;5073905;28;20052;-42
2022/10/16 04:04:34;;;;;;;11.25;8.00;;;;;;;12.84;60.44;100544.06;5073789;28;20534;-42
2022/10/16 04:06:59;;;;;;;14.38;8.13;;;;;;;12.87;59.95;100540.16;5073459;28;20040;-42
2022/10/16 04:09:25;;;;;;;11.13;7.47;;;;;;;12.71;61.36;100541.34;5073632;28;20480;-42
2022/10/16 04:11:50;;;;;;;13.55;8.10;;;;;;;12.56;61.87;100548.66;5073421;28;20024;-42
2022/10/16 04:14:16;;;;;;;12.35;8.48;;;;;;;12.71;61.13;100547.50;5073403;28;20476;-42
2022/10/16 04:16:41;;;;;;;16.33;8.88;;;;;;;12.81;61.01;100543.63;5073325;28;20051;-42
2022/10/16 04:19:06;;;;;;;14.07;8.63;;;;;;;12.68;60.73;100541.75;5073438;28;20028;-42
2022/10/16 04:21:32;;;;;;;12.43;8.18;;;;;;;12.51;62.08;100547.41;5073189;28;20123;-42
2022/10/16 04:23:57;;;;;;;13.02;8.38;;;;;;;12.54;61.56;100542.69;5073396;28;20491;-42
2022/10/16 04:26:23;;;;;;;12.05;8.45;;;;;;;12.40;62.13;100547.13;5073199;28;20021;-42
2022/10/16 04:28:48;;;;;;;16.13;8.88;;;;;;;12.57;61.73;100545.78;5073318;28;20025;-42
2022/10/16 04:31:14;;;;;;;12.60;8.98;;;;;;;12.60;61.39;100549.91;5073102;28;20028;-42
2022/10/16 04:33:42;;;;;;;16.95;10.77;;;;;;;12.31;62.50;100546.44;5073030;28;20107;-42
2022/10/16 04:36:08;;;;;;;15.13;9.85;;;;;;;12.43;61.72;100557.41;5072806;28;20445;-47
2022/10/16 04:38:33;;;;;;;15.70;9.95;;;;;;;12.51;61.78;100544.72;5072954;28;20017;-47
2022/10/16 04:40:59;;;;;;;19.08;10.77;;;;;;;12.51;61.66;100550.06;5072795;28;20103;-47
2022/10/16 04:43:25;;;;;;;15.30;9.57;;;;;;;12.25;62.81;100534.72;5072628;28;20016;-47
2022/10/16 04:45:51;;;;;;;12.25;9.60;;;;;;;12.35;62.27;100552.22;5072487;28;20031;-47
2022/10/16 04:48:17;;;;;;;18.77;10.27;;;;;;;12.39;61.87;100545.47;5072815;28;20092;-47
2022/10/16 04:50:43;;;;;;;17.05;10.20;;;;;;;12.42;61.80;100547.75;5072107;28;20020;-48
2022/10/16 04:53:08;;;;;;;16.17;10.20;;;;;;;12.60;61.20;100560.59;5072622;28;20346;-47
2022/10/16 04:55:34;;;;;;;16.55;9.18;;;;;;;12.39;62.08;100554.28;5072741;28;20511;-47
2022/10/16 04:58:00;;;;;;;16.55;9.63;;;;;;;12.32;62.38;100566.78;5072616;28;20056;-47
2022/10/16 05:00:25;;;;;;;16.70;10.45;;;;;;;12.30;61.80;100564.31;5071045;28;20024;-48
2022/10/16 05:02:51;;;;;;;17.75;10.68;;;;;;;12.39;61.67;100567.63;5072419;28;20021;-47
2022/10/16 05:05:19;;;;;;;17.95;11.45;;;;;;;12.13;62.62;100571.78;5072273;28;20027;-47
2022/10/16 05:07:44;;;;;;;18.08;11.98;;;;;;;11.93;63.62;100574.28;5071482;28;20085;-41
2022/10/16 05:10:10;;;;;;;23.73;11.13;;;;;;;12.11;62.48;100575.66;5071464;28;20024;-42
2022/10/16 05:12:35;;;;;;;19.75;10.18;;;;;;;12.09;63.01;100581.19;5071579;28;20024;-40
2022/10/16 05:15:00;;;;;;;19.50;11.52;;;;;;;12.22;62.82;100576.97;5071394;28;20025;-42
2022/10/16 05:17:26;;;;;;;25.75;18.33;;;;;;;12.38;62.54;100579.34;5072079;28;20440;-41
2022/10/16 05:19:52;;;;;;;27.30;15.93;;;;;;;12.63;62.44;100584.22;5071519;28;20031;-41
2022/10/16 05:22:18;;;;;;;20.60;12.43;;;;;;;13.17;70.71;100594.13;5064860;28;20496;-42
2022/10/16 05:24:43;;;;;;;16.92;11.88;;;;;;;13.40;62.96;100588.53;5056740;28;20025;-42
2022/10/16 05:27:10;;;;;;;15.07;9.40;;;;;;;13.78;61.16;100595.16;5067331;28;20108;-36
2022/10/16 05:29:36;;;;;;;19.95;10.07;;;;;;;14.11;59.54;100599.72;5071083;28;20028;-35
2022/10/16 05:32:01;;;;;;;27.08;15.77;;;;;;;14.30;58.05;100598.06;5071257;28;20021;-35
2022/10/16 05:34:26;;;;;;;21.77;13.23;;;;;;;14.64;56.99;100597.84;5071152;28;20135;-36
2022/10/16 05:36:52;;;;;;;40.97;23.70;;;;;;;14.56;56.99;100590.00;5071080;28;20040;-35
2022/10/16 05:39:17;;;;;;;18.10;9.88;;;;;;;14.88;56.89;100610.78;5070990;28;20386;-36
2022/10/16 05:41:43;;;;;;;13.43;8.75;;;;;;;15.20;55.80;100606.34;5070701;28;20017;-36
2022/10/16 05:44:09;;;;;;;13.65;8.68;;;;;;;15.69;54.29;100615.56;5071007;28;20024;-36
2022/10/16 05:46:34;;;;;;;11.40;8.43;;;;;;;16.00;54.30;100620.13;5070893;28;20031;-36
2022/10/16 05:49:00;;;;;;;13.05;8.25;;;;;;;16.07;53.78;100630.00;5071042;28;20430;-36
2022/10/16 05:51:25;;;;;;;12.80;8.02;;;;;;;16.49;52.32;100628.41;5070662;28;20096;-36
2022/10/16 05:53:52;;;;;;;15.30;8.77;;;;;;;16.82;51.54;100635.34;5070816;28;20031;-35
2022/10/16 05:56:17;;;;;;;11.48;8.27;;;;;;;17.36;50.37;100633.69;5069842;28;20536;-36
2022/10/16 05:58:44;;;;;;;12.50;7.47;;;;;;;17.71;48.10;100629.50;5070591;28;20115;-36
2022/10/16 06:01:18;;;;;;;15.23;7.70;;;;;;;17.48;48.72;100633.75;5069390;28;20078;-36
2022/10/16 06:03:43;;;;;;;9.82;7.32;;;;;;;17.88;47.54;100627.00;5071349;28;20024;-36
2022/10/16 06:06:17;;;;;;;14.23;8.45;;;;;;;17.76;47.51;100635.00;5071013;28;20427;-43
2022/10/16 06:08:45;;;;;;;10.10;7.38;;;;;;;18.09;47.52;100641.81;5069845;28;20032;-41
2022/10/16 06:11:14;;;;;;;11.88;6.70;;;;;;;18.70;45.96;100645.94;5070264;28;20452;-41
2022/10/16 06:13:42;;;;;;;;;;;;;;;19.42;43.89;100646.66;5061823;28;20039;-40
2022/10/16 06:16:08;;;;;;;8.77;6.45;;;;;;;19.64;43.76;100638.69;5059839;28;19952;-42
2022/10/16 06:18:34;;;;;;;15.55;8.60;;;;;;;20.06;42.68;100643.78;5050804;28;20055;-42
2022/10/16 06:20:59;;;;;;;12.02;7.32;;;;;;;20.28;41.26;100644.69;5049612;28;20454;-41
2022/10/16 06:23:25;;;;;;;7.80;5.50;;;;;;;20.65;40.49;100646.91;5057783;28;20036;-41
2022/10/16 06:25:51;;;;;;;7.10;5.00;;;;;;;20.74;39.59;100643.78;5070429;28;20480;-42
2022/10/16 06:28:16;;;;;;;7.35;4.55;;;;;;;20.96;39.68;100652.75;5069965;28;20021;-40
2022/10/16 06:30:45;;;;;;;6.88;4.53;;;;;;;21.42;38.50;100652.50;5070132;28;20690;-42
2022/10/16 06:33:11;;;;;;;9.82;6.35;;;;;;;21.40;38.56;100652.75;5070267;28;20017;-40
2022/10/16 06:35:37;;;;;;;8.18;4.80;;;;;;;21.69;37.88;100657.16;5069454;28;20485;-41
2022/10/16 06:38:02;;;;;;;7.68;4.75;;;;;;;21.63;37.81;100669.81;5067803;28;20039;-42
2022/10/16 06:40:27;;;;;;;12.25;6.38;;;;;;;21.25;39.11;100666.09;5069122;28;20081;-41
2022/10/16 06:42:55;;;;;;;10.80;6.88;;;;;;;21.13;38.73;100673.50;5069249;28;20480;-40
2022/10/16 06:45:20;;;;;;;15.93;7.57;;;;;;;20.77;39.52;100678.44;5069420;28;20569;-41
2022/10/16 06:47:46;;;;;;;18.83;10.30;;;;;;;21.26;38.85;100675.84;5068677;28;20109;-42
2022/10/16 06:50:11;;;;;;;13.10;7.70;;;;;;;21.42;38.45;100679.59;5068520;28;20107;-40
2022/10/16 06:52:37;;;;;;;8.70;4.95;;;;;;;22.02;37.90;100683.19;5069501;28;20116;-42
2022/10/16 06:55:02;;;;;;;11.38;5.85;;;;;;;22.35;37.12;100692.19;5069329;28;20052;-41
2022/10/16 06:57:28;;;;;;;9.85;5.95;;;;;;;22.84;35.88;100692.81;5069881;28;20388;-41
2022/10/16 06:59:54;;;;;;;8.60;4.68;;;;;;;23.08;35.60;100683.50;5069181;28;20550;-41
2022/10/16 07:02:19;;;;;;;8.70;5.00;;;;;;;23.48;35.03;100687.44;5069529;28;20016;-42
2022/10/16 07:04:45;;;;;;;7.80;5.00;;;;;;;23.43;34.81;100685.50;5069695;28;20111;-41
2022/10/16 07:07:10;;;;;;;7.32;4.65;;;;;;;23.57;34.91;100686.66;5069398;28;20032;-41
2022/10/16 07:09:35;;;;;;;9.95;5.20;;;;;;;23.92;34.88;100689.75;5068680;28;20044;-41
2022/10/16 07:12:01;;;;;;;17.15;5.47;;;;;;;24.13;34.71;100687.88;5068942;28;20021;-41
2022/10/16 07:14:27;;;;;;;7.93;4.95;;;;;;;24.29;36.57;100696.84;5068473;28;20021;-43
2022/10/16 07:16:52;;;;;;;5.97;5.03;;;;;;;24.76;33.38;100695.75;5069465;28;20024;-43
2022/10/16 07:19:18;;;;;;;9.57;6.60;;;;;;;24.43;33.42;100692.50;5068447;28;20016;-42
2022/10/16 07:21:44;;;;;;;7.47;5.45;;;;;;;24.59;33.50;100691.41;5069138;28;20040;-41
2022/10/16 07:24:15;;;;;;;6.80;5.22;;;;;;;24.77;33.32;100702.84;5068680;28;20060;-42
2022/10/16 07:26:42;;;;;;;11.65;6.13;;;;;;;24.33;34.61;100687.03;5069720;28;20036;-42
2022/10/16 07:29:13;;;;;;;7.47;5.22;;;;;;;24.95;32.98;100696.78;5069549;28;20024;-42
2022/10/16 07:31:39;;;;;;;9.88;5.18;;;;;;;24.96;32.92;100697.63;5069051;28;20048;-43
2022/10/16 07:34:05;;;;;;;8.60;5.20;;;;;;;25.02;32.86;100693.78;5065808;28;20402;-43
2022/10/16 07:36:30;;;;;;;8.27;5.22;;;;;;;25.13;32.89;100695.38;5067467;28;20032;-43
2022/10/16 07:38:56;;;;;;;7.45;5.20;;;;;;;24.35;33.34;100690.31;5064008;28;20025;-44
2022/10/16 07:41:21;;;;;;;6.78;4.68;;;;;;;23.69;34.80;100694.56;5069216;28;20025;-40
2022/10/16 07:43:48;;;;;;;9.40;4.90;;;;;;;24.12;34.06;100678.06;5069818;28;20020;-41
2022/10/16 07:46:14;;;;;;;11.60;8.07;;;;;;;23.67;34.92;100690.50;5072710;28;20074;-42
2022/10/16 07:48:40;;;;;;;9.02;5.70;;;;;;;24.51;34.16;100689.25;5080917;28;20124;-41
2022/10/16 07:51:07;;;;;;;9.95;7.47;;;;;;;24.73;33.05;100691.69;5076078;28;20040;-41
2022/10/16 07:53:33;;;;;;;8.68;6.07;;;;;;;25.10;32.66;100692.41;5070202;28;20016;-42
2022/10/16 07:56:04;;;;;;;9.75;6.00;;;;;;;25.23;32.42;100686.38;5068485;28;20032;-37
2022/10/16 07:58:30;;;;;;;6.28;4.75;;;;;;;25.03;32.67;100689.16;5075221;28;20024;-36
2022/10/16 08:00:56;;;;;;;11.30;6.00;;;;;;;24.78;33.29;100685.41;5089413;28;20032;-34
2022/10/16 08:03:23;;;;;;;8.43;5.20;;;;;;;25.36;32.35;100691.22;5089623;28;20028;-37
2022/10/16 08:05:48;;;;;;;10.88;6.82;;;;;;;25.46;31.76;100695.81;5089389;28;20024;-37
2022/10/16 08:08:15;;;;;;;9.65;5.32;;;;;;;25.45;32.13;100690.63;5089411;28;20066;-36
2022/10/16 08:10:41;;;;;;;8.15;5.10;;;;;;;25.61;31.82;100692.19;5088984;28;20023;-36
2022/10/16 08:13:07;;;;;;;6.38;4.45;;;;;;;25.82;31.49;100690.16;5088518;28;20012;-36
2022/10/16 08:15:32;;;;;;;10.48;4.90;;;;;;;24.85;32.53;100677.75;5088284;28;20023;-36
2022/10/16 08:18:03;;;;;;;7.75;4.88;;;;;;;24.87;32.51;100693.81;5088479;28;20095;-36
2022/10/16 08:20:30;;;;;;;7.93;5.32;;;;;;;25.60;31.85;100690.56;5086547;28;20495;-36
2022/10/16 08:22:55;;;;;;;7.93;4.90;;;;;;;25.84;31.94;100687.16;5082302;28;20511;-36
2022/10/16 08:25:22;;;;;;;7.07;4.25;;;;;;;26.22;30.90;100684.72;5069061;28;20101;-36
2022/10/16 08:27:49;;;;;;;8.25;5.00;;;;;;;26.31;30.11;100680.25;5070822;28;20058;-35
2022/10/16 08:30:15;;;;;;;8.90;5.63;;;;;;;25.91;31.04;100682.19;5070447;28;20495;-36
2022/10/16 08:32:43;;;;;;;6.20;5.00;;;;;;;25.75;31.26;100682.28;5072495;28;20056;-36
2022/10/16 08:35:10;;;;;;;7.45;5.15;;;;;;;25.08;32.01;100681.78;5064244;28;20040;-35
2022/10/16 08:37:36;;;;;;;15.40;9.52;;;;;;;23.91;33.32;100682.66;5053034;28;20499;-35
2022/10/16 08:40:02;;;;;;;8.82;5.43;;;;;;;24.69;32.58;100689.75;5052966;28;20033;-36
2022/10/16 08:42:33;;;;;;;8.25;4.70;;;;;;;25.55;31.69;100680.50;5053108;28;20040;-36
2022/10/16 08:45:20;;;;;;;7.38;4.90;;;;;;;25.81;31.14;100685.00;5053132;28;20514;-36
2022/10/16 08:47:59;;;;;;;7.22;4.43;;;;;;;25.59;31.71;100679.94;5052716;28;20227;-36
2022/10/16 08:50:27;;;;;;;6.37;4.80;;;;;;;25.86;31.55;100680.31;5052599;28;20074;-36
2022/10/16 08:52:54;;;;;;;7.78;4.57;;;;;;;25.74;31.35;100679.84;5052672;28;20100;-36
2022/10/16 08:55:32;;;;;;;9.13;4.80;;;;;;;25.74;31.39;100677.94;5060302;28;20481;-36
2022/10/16 08:57:58;;;;;;;7.35;4.60;;;;;;;26.02;30.69;100683.78;5072595;28;20028;-35
2022/10/16 09:00:25;;;;;;;7.78;4.25;;;;;;;25.76;31.36;100677.66;5072635;28;20044;-37
2022/10/16 09:03:10;;;;;;;5.07;4.43;;;;;;;26.37;30.48;100676.41;5072623;28;20036;-35
2022/10/16 09:06:03;;;;;;;7.78;4.65;;;;;;;26.68;29.93;100676.16;5073017;28;20040;-36
2022/10/16 09:08:38;;;;;;;6.63;4.43;;;;;;;27.19;28.93;100680.19;5072105;28;20024;-42
2022/10/16 09:11:16;;;;;;;5.75;4.03;;;;;;;26.88;29.22;100670.47;5072704;28;20086;-41
2022/10/16 09:13:56;;;;;;;7.68;4.55;;;;;;;26.69;29.32;100675.88;5071601;28;20074;-42
2022/10/16 09:16:33;;;;;;;9.10;5.10;;;;;;;25.46;30.58;100675.94;5072372;28;20028;-42
2022/10/16 09:19:08;;;;;;;44.83;28.08;;;;;;;26.17;30.47;100677.38;5071501;28;20040;-43
2022/10/16 09:21:39;;;;;;;9.15;5.07;;;;;;;25.70;29.65;100676.06;5071691;28;20056;-36
2022/10/16 09:24:14;;;;;;;5.20;4.38;;;;;;;25.75;29.64;100679.56;5072495;28;20024;-36
2022/10/16 09:26:39;;;;;;;8.70;6.63;;;;;;;25.59;29.56;100669.88;5075318;28;20028;-36
2022/10/16 09:29:05;;;;;;;7.70;4.93;;;;;;;25.35;30.29;100667.00;5076716;28;20150;-36
2022/10/16 09:31:30;;;;;;;6.72;4.35;;;;;;;25.33;30.20;100666.47;5071993;28;20066;-36
2022/10/16 09:34:05;;;;;;;4.28;3.42;;;;;;;24.52;29.67;100668.28;5072145;28;20031;-43
2022/10/16 09:36:41;;;;;;;5.10;3.50;;;;;;;24.52;29.53;100662.84;5073450;28;20036;-42
2022/10/16 09:39:11;;;;;;;4.13;3.13;;;;;;;24.32;28.98;100661.75;5072575;28;20028;-42
2022/10/16 09:41:41;;;;;;;4.85;3.25;;;;;;;23.30;30.92;100667.81;5071521;28;20028;-42
2022/10/16 09:44:27;;;;;;;6.20;3.95;;;;;;;23.29;31.47;100658.03;5073730;28;20042;-42
2022/10/16 09:47:11;;;;;;;4.05;3.65;;;;;;;23.87;31.16;100651.69;5071198;28;20115;-41
2022/10/16 09:49:37;;;;;;;7.45;3.83;;;;;;;23.93;31.41;100654.16;5069904;28;20108;-42
2022/10/16 09:52:14;;;;;;;7.03;3.85;;;;;;;23.77;32.15;100652.47;5070902;28;20111;-42
2022/10/16 09:54:58;;;;;;;4.95;3.72;;;;;;;23.99;31.44;100642.19;5071408;28;20032;-43
2022/10/16 09:57:25;;;;;;;4.72;3.40;;;;;;;24.22;30.64;100641.91;5071479;28;20107;-47
2022/10/16 09:59:55;;;;;;;4.35;3.45;;;;;;;24.53;30.02;100642.72;5062965;28;20120;-47
2022/10/16 10:02:34;;;;;;;3.78;3.33;;;;;;;25.45;27.90;100636.97;5070744;28;20119;-47
2022/10/16 10:05:00;;;;;;;3.92;3.20;;;;;;;25.75;28.71;100632.41;5071181;28;20036;-46
2022/10/16 10:07:33;;;;;;;5.47;3.70;;;;;;;25.44;27.92;100629.91;5071044;28;20491;-47
2022/10/16 10:09:59;;;;;;;4.88;3.65;;;;;;;25.31;28.42;100625.06;5070696;28;20098;-48
2022/10/16 10:12:27;;;;;;;4.60;3.75;;;;;;;25.11;27.63;100625.94;5067685;28;20477;-48
2022/10/16 10:14:56;;;;;;;6.40;4.00;;;;;;;23.71;29.93;100629.09;5070593;28;20024;-48
2022/10/16 10:17:21;;;;;;;8.95;3.92;;;;;;;24.10;29.40;100623.97;5070436;28;20021;-47
2022/10/16 10:19:47;;;;;;;5.13;3.70;;;;;;;24.51;29.35;100618.53;5070255;28;20052;-42
2022/10/16 10:22:24;;;;;;;6.72;3.85;;;;;;;24.96;28.56;100614.03;5070076;28;20076;-42
2022/10/16 10:24:56;;;;;;;5.45;3.55;;;;;;;24.98;28.26;100611.03;5067194;28;20044;-44
2022/10/16 10:27:30;;;;;;;8.43;3.47;;;;;;;25.40;27.80;100620.66;5060501;28;20028;-41
2022/10/16 10:30:15;;;;;;;5.75;3.63;;;;;;;25.54;27.90;100613.47;5070444;28;20032;-36
2022/10/16 10:32:43;;;;;;;4.72;3.47;;;;;;;25.96;27.27;100613.22;5069953;28;20495;-42
2022/10/16 10:35:24;;;;;;;9.82;4.50;;;;;;;26.25;32.35;100610.50;5070645;28;20032;-43
2022/10/16 10:38:09;;;;;;;5.05;3.67;;;;;;;26.42;26.38;100613.59;5070978;28;20028;-42
2022/10/16 10:40:44;;;;;;;9.63;4.80;;;;;;;26.29;29.40;100606.91;5069819;28;20028;-41
2022/10/16 10:43:31;;;;;;;6.20;3.35;;;;;;;26.17;27.01;100598.28;5070736;28;20028;-41
2022/10/16 10:46:08;;;;;;;5.10;3.50;;;;;;;25.39;27.47;100597.22;5071079;28;20031;-43
2022/10/16 10:48:47;;;;;;;6.00;3.50;;;;;;;25.83;26.34;100598.28;5070086;28;20024;-42
2022/10/16 10:51:25;;;;;;;4.45;3.35;;;;;;;24.61;27.07;100597.81;5070819;28;20028;-43
2022/10/16 10:54:16;;;;;;;5.47;2.90;;;;;;;24.39;27.85;100588.06;5070569;28;20077;-46
2022/10/16 10:57:00;;;;;;;4.45;3.13;;;;;;;24.63;27.60;100596.44;5070421;28;20028;-47
2022/10/16 10:59:37;;;;;;;6.25;3.55;;;;;;;24.40;27.76;100587.75;5070428;28;20551;-42
2022/10/16 11:02:17;;;;;;;5.45;3.70;;;;;;;24.31;28.19;100591.31;5070020;28;20036;-42
2022/10/16 11:04:42;;;;;;;6.70;4.07;;;;;;;24.49;27.57;100590.75;5069003;28;20028;-42
2022/10/16 11:07:27;;;;;;;11.43;6.25;;;;;;;24.66;27.18;100587.75;5069036;28;20112;-42
2022/10/16 11:09:58;;;;;;;11.00;5.78;;;;;;;25.42;26.59;100590.38;5068678;28;20028;-43
2022/10/16 11:12:41;;;;;;;6.00;4.10;;;;;;;25.77;25.43;100577.63;5070106;28;20024;-43
2022/10/16 11:15:21;;;;;;;5.43;3.63;;;;;;;25.85;26.71;100590.63;5067635;28;20033;-43
2022/10/16 11:18:24;;;;;;;6.22;4.38;;;;;;;25.52;26.21;100593.06;5069588;28;20033;-41
2022/10/16 11:20:54;;;;;;;5.95;3.80;;;;;;;25.09;26.43;100579.13;5069325;28;20056;-42
2022/10/16 11:23:50;;;;;;;45.83;34.63;;;;;;;25.61;26.17;100579.63;5070001;28;20648;-42
2022/10/16 11:26:21;;;;;;;4.25;3.85;;;;;;;25.68;25.78;100575.53;5070064;28;20044;-44
2022/10/16 11:28:54;;;;;;;4.80;3.75;;;;;;;26.14;25.89;100572.41;5069474;28;20159;-42